createdAt,value
2023-06-01T00:00:00.123Z,14.3
2023-06-01T00:05:00.114Z,14.7
2023-06-01T00:10:00.203Z,13.6
2023-06-01T00:15:00.171Z,15.5
2023-06-01T00:20:00.122Z,17.4
2023-06-01T00:25:00.138Z,15.9
2023-06-01T00:30:00.114Z,15.1
2023-06-01T00:35:00.140Z,18
2023-06-01T00:40:00.125Z,15.4
2023-06-01T00:45:00.245Z,14.9
2023-06-01T00:50:00.146Z,16.7
2023-06-01T00:55:00.145Z,13.6
2023-06-01T01:00:00.233Z,13.9
2023-06-01T01:05:00.108Z,12.8
2023-06-01T01:10:00.147Z,13.6
2023-06-01T01:15:00.154Z,14.2
2023-06-01T01:20:00.180Z,14.2
2023-06-01T01:25:00.125Z,13.4
2023-06-01T01:30:00.135Z,11.2
2023-06-01T01:35:00.165Z,12.7
2023-06-01T01:40:00.132Z,16.1
2023-06-01T01:45:00.137Z,16.5
2023-06-01T01:50:00.156Z,16.7
2023-06-01T01:55:00.165Z,17.9
2023-06-01T02:05:00.161Z,11.9
2023-06-01T02:10:00.170Z,14.4
2023-06-01T02:15:00.132Z,17.3
2023-06-01T02:20:00.146Z,16.2
2023-06-01T02:25:00.377Z,17.7
2023-06-01T02:30:00.195Z,15.4
2023-06-01T02:35:00.159Z,16.5
2023-06-01T02:40:00.147Z,16.4
2023-06-01T02:45:00.095Z,15.9
2023-06-01T02:50:00.189Z,18.1
2023-06-01T02:55:00.126Z,16.5
2023-06-01T03:00:00.147Z,17.1
2023-06-01T03:05:00.102Z,16.7
2023-06-01T03:10:00.143Z,15.6
2023-06-01T03:15:00.107Z,16.3
2023-06-01T03:20:00.130Z,17.1
2023-06-01T03:25:00.095Z,15.7
2023-06-01T03:30:00.129Z,17
2023-06-01T03:35:00.108Z,16.3
2023-06-01T03:40:00.239Z,14.8
2023-06-01T03:45:00.170Z,16.6
2023-06-01T03:50:00.145Z,13.3
2023-06-01T03:55:00.140Z,13.9
2023-06-01T04:00:00.110Z,15.2
2023-06-01T04:05:00.164Z,15.9
2023-06-01T04:10:00.179Z,13.8
2023-06-01T04:15:00.153Z,15
2023-06-01T04:20:00.153Z,15.6
2023-06-01T04:25:00.170Z,17
2023-06-01T04:30:00.173Z,17.6
2023-06-01T04:35:00.173Z,17
2023-06-01T04:40:00.163Z,17.2
2023-06-01T04:45:00.144Z,17.5
2023-06-01T04:50:00.151Z,19.2
2023-06-01T04:55:00.122Z,18.9
2023-06-01T05:00:00.128Z,18.5
2023-06-01T05:05:00.143Z,14.1
2023-06-01T05:10:00.129Z,18.7
2023-06-01T05:15:00.120Z,16.8
2023-06-01T05:20:00.329Z,16.9
2023-06-01T05:25:00.136Z,18.5
2023-06-01T05:30:00.120Z,13.9
2023-06-01T05:35:00.146Z,13.8
2023-06-01T05:40:00.117Z,11.9
2023-06-01T05:45:00.273Z,11.5
2023-06-01T05:50:00.128Z,8.9
2023-06-01T05:55:00.134Z,9.9
2023-06-01T06:00:00.150Z,11.7
2023-06-01T06:05:00.141Z,12.7
2023-06-01T06:10:00.195Z,12.1
2023-06-01T06:15:00.168Z,16.3
2023-06-01T06:20:00.137Z,14.5
2023-06-01T06:25:00.106Z,15.5
2023-06-01T06:30:00.131Z,13.8
2023-06-01T06:35:00.111Z,15.2
2023-06-01T06:40:00.182Z,13.8
2023-06-01T06:45:00.132Z,18.3
2023-06-01T06:50:00.163Z,12.4
2023-06-01T06:55:00.151Z,15.7
2023-06-01T07:00:00.147Z,12.1
2023-06-01T07:05:00.114Z,11.9
2023-06-01T07:10:00.169Z,11.7
2023-06-01T07:15:00.118Z,14.5
2023-06-01T07:20:00.147Z,11.4
2023-06-01T07:25:00.104Z,10.1
2023-06-01T07:30:00.181Z,13.4
2023-06-01T07:35:00.172Z,12.1
2023-06-01T07:40:00.175Z,12.8
2023-06-01T07:45:00.139Z,12.1
2023-06-01T07:50:00.130Z,9.2
2023-06-01T07:55:00.150Z,13.8
2023-06-01T08:00:00.147Z,14.9
2023-06-01T08:05:00.096Z,12.9
2023-06-01T08:10:00.165Z,12.8
2023-06-01T08:15:00.108Z,10.4
2023-06-01T08:20:00.160Z,12.1
2023-06-01T08:25:00.137Z,12.2
2023-06-01T08:30:00.148Z,12.3
2023-06-01T08:35:00.136Z,11.6
2023-06-01T08:40:00.123Z,10.6
2023-06-01T08:45:00.130Z,10.6
2023-06-01T08:50:00.118Z,9.9
2023-06-01T08:55:00.119Z,11
2023-06-01T09:00:00.187Z,10.3
2023-06-01T09:05:00.137Z,12.1
2023-06-01T09:10:00.285Z,8.7
2023-06-01T09:15:01.845Z,11.6
2023-06-01T09:20:00.159Z,11.9
2023-06-01T09:25:00.167Z,10
2023-06-01T09:30:00.143Z,12.1
2023-06-01T09:35:00.165Z,11.1
2023-06-01T09:40:00.153Z,10.7
2023-06-01T09:45:01.713Z,12
2023-06-01T09:50:00.116Z,11.7
2023-06-01T09:55:00.124Z,12.7
2023-06-01T10:00:00.145Z,10.2
2023-06-01T10:05:00.125Z,19.6
2023-06-01T10:10:00.163Z,15.3
2023-06-01T10:15:00.111Z,14.2
2023-06-01T10:20:00.130Z,13.8
2023-06-01T10:25:00.101Z,11.5
2023-06-01T10:30:00.156Z,11.1
2023-06-01T10:35:00.150Z,10.6
2023-06-01T10:40:00.143Z,16.4
2023-06-01T10:45:00.153Z,12.3
2023-06-01T10:50:00.169Z,17.2
2023-06-01T10:55:00.108Z,14.8
2023-06-01T11:00:00.146Z,16.8
2023-06-01T11:05:00.228Z,16.6
2023-06-01T11:10:00.178Z,12.7
2023-06-01T11:15:00.843Z,15.1
2023-06-01T11:20:00.135Z,16.1
2023-06-01T11:25:00.157Z,14.4
2023-06-01T11:30:00.172Z,9.3
2023-06-01T11:35:00.139Z,13.3
2023-06-01T11:40:00.140Z,18.1
2023-06-01T11:45:00.244Z,18.1
2023-06-01T11:50:00.151Z,13.6
2023-06-01T11:55:00.125Z,12.9
2023-06-01T12:00:00.182Z,13.7
2023-06-01T12:05:00.366Z,10.6
2023-06-01T12:10:00.122Z,9.3
2023-06-01T12:15:00.116Z,20
2023-06-01T12:20:00.130Z,16.5
2023-06-01T12:25:00.129Z,14
2023-06-01T12:30:00.177Z,20.4
2023-06-01T12:35:00.138Z,12.8
2023-06-01T12:40:00.187Z,10.9
2023-06-01T12:45:00.217Z,10
2023-06-01T12:50:00.173Z,11.9
2023-06-01T12:55:00.121Z,14.2
2023-06-01T13:00:00.136Z,13.3
2023-06-01T13:05:00.106Z,6.7
2023-06-01T13:10:00.149Z,11.8
2023-06-01T13:15:00.142Z,11.8
2023-06-01T13:20:00.193Z,11.2
2023-06-01T13:25:05.292Z,17
2023-06-01T13:30:00.258Z,15.9
2023-06-01T13:35:00.150Z,9.3
2023-06-01T13:40:00.202Z,10.4
2023-06-01T13:45:00.166Z,16
2023-06-01T13:50:00.151Z,15.2
2023-06-01T13:55:00.161Z,13
2023-06-01T14:00:00.121Z,14.8
2023-06-01T14:05:10.877Z,11.2
2023-06-01T14:10:00.148Z,15.1
2023-06-01T14:15:00.175Z,18.1
2023-06-01T14:20:00.164Z,18.5
2023-06-01T14:25:00.201Z,14.9
2023-06-01T14:30:00.218Z,11.8
2023-06-01T14:35:00.121Z,19.9
2023-06-01T14:40:00.158Z,16.1
2023-06-01T14:45:06.140Z,20.2
2023-06-01T14:50:00.140Z,15.8
2023-06-01T14:55:00.142Z,14.6
2023-06-01T15:00:04.047Z,19.6
2023-06-01T15:05:00.215Z,18.9
2023-06-01T15:10:00.150Z,18.7
2023-06-01T15:15:00.100Z,15.5
2023-06-01T15:20:00.130Z,14.9
2023-06-01T15:25:00.109Z,14.1
2023-06-01T15:30:00.177Z,11.8
2023-06-01T15:35:00.161Z,14.2
2023-06-01T15:40:00.299Z,18
2023-06-01T15:45:01.482Z,13.2
2023-06-01T15:50:00.144Z,21
2023-06-01T16:00:00.150Z,10.6
2023-06-01T16:05:00.167Z,15.4
2023-06-01T16:10:00.133Z,18.9
2023-06-01T16:15:00.152Z,22.7
2023-06-01T16:20:00.153Z,18.1
2023-06-01T16:25:00.127Z,16.5
2023-06-01T16:30:00.147Z,14.3
2023-06-01T16:35:00.112Z,12.6
2023-06-01T16:40:00.159Z,25
2023-06-01T16:45:00.254Z,25
2023-06-01T16:50:00.139Z,27.1
2023-06-01T16:55:00.139Z,23.7
2023-06-01T17:00:00.132Z,23.4
2023-06-01T17:05:00.129Z,24.9
2023-06-01T17:10:00.199Z,26.7
2023-06-01T17:15:00.142Z,29.2
2023-06-01T17:20:00.173Z,24.8
2023-06-01T17:25:00.149Z,23.2
2023-06-01T17:30:00.175Z,24.3
2023-06-01T17:35:00.123Z,26.5
2023-06-01T17:40:00.094Z,21.5
2023-06-01T17:45:00.133Z,18.4
2023-06-01T17:50:00.170Z,18.4
2023-06-01T17:55:00.112Z,18.3
2023-06-01T18:00:00.103Z,17.1
2023-06-01T18:05:00.150Z,18.7
2023-06-01T18:10:00.166Z,19.4
2023-06-01T18:15:00.124Z,16.5
2023-06-01T18:20:00.115Z,16.4
2023-06-01T18:25:00.126Z,14.8
2023-06-01T18:30:00.183Z,13.9
2023-06-01T18:35:00.139Z,13
2023-06-01T18:40:00.131Z,10.3
2023-06-01T18:45:00.141Z,10.7
2023-06-01T18:50:00.176Z,12.3
2023-06-01T18:55:00.098Z,11.8
2023-06-01T19:00:00.201Z,13.3
2023-06-01T19:05:00.146Z,13.9
2023-06-01T19:10:00.152Z,13.8
2023-06-01T19:15:00.093Z,14.6
2023-06-01T19:20:00.147Z,12.4
2023-06-01T19:25:00.137Z,12.6
2023-06-01T19:30:00.182Z,12.7
2023-06-01T19:35:00.143Z,12.4
2023-06-01T19:40:00.175Z,13.7
2023-06-01T19:45:00.177Z,12.9
2023-06-01T19:50:00.139Z,12.1
2023-06-01T19:55:00.146Z,12.1
2023-06-01T20:00:00.132Z,13.7
2023-06-01T20:05:00.113Z,13.5
2023-06-01T20:10:00.158Z,14.9
2023-06-01T20:15:00.158Z,14.6
2023-06-01T20:20:00.128Z,16.3
2023-06-01T20:25:00.117Z,16.2
2023-06-01T20:30:00.131Z,16.2
2023-06-01T20:35:00.133Z,19.7
2023-06-01T20:40:00.136Z,18
2023-06-01T20:45:00.175Z,18.6
2023-06-01T20:50:00.122Z,16.3
2023-06-01T20:55:00.101Z,18.5
2023-06-01T21:00:00.160Z,18.1
2023-06-01T21:05:00.137Z,17.7
2023-06-01T21:10:00.170Z,21.3
2023-06-01T21:15:00.148Z,20.2
2023-06-01T21:20:00.157Z,18.4
2023-06-01T21:25:00.157Z,17.3
2023-06-01T21:30:00.146Z,17.5
2023-06-01T21:35:00.135Z,16.1
2023-06-01T21:40:00.185Z,15.3
2023-06-01T21:45:00.160Z,15.9
2023-06-01T21:50:00.178Z,16.3
2023-06-01T21:55:00.157Z,16.2
2023-06-01T22:00:00.193Z,15.7
2023-06-01T22:05:00.163Z,16.3
2023-06-01T22:10:00.167Z,13.8
2023-06-01T22:15:00.183Z,10.8
2023-06-01T22:20:00.233Z,12.7
2023-06-01T22:25:00.181Z,14.9
2023-06-01T22:30:00.206Z,13.3
2023-06-01T22:35:00.180Z,14.4
2023-06-01T22:40:00.227Z,14.6
2023-06-01T22:45:00.159Z,14
2023-06-01T22:50:00.333Z,13.7
2023-06-01T22:55:00.150Z,11.8
2023-06-01T23:00:00.214Z,14.1
2023-06-01T23:05:00.197Z,16
2023-06-01T23:10:00.193Z,14.8
2023-06-01T23:15:00.163Z,15.3
2023-06-01T23:20:00.157Z,16.9
2023-06-01T23:25:00.153Z,13.7
2023-06-01T23:30:00.177Z,12.4
2023-06-01T23:35:00.131Z,12
2023-06-01T23:40:00.147Z,11.3
2023-06-01T23:45:00.118Z,15.3
2023-06-01T23:50:00.135Z,14.9
2023-06-01T23:55:00.106Z,15.5
